Time;durP1;ratioP1;P1;durP2;ratioP2;P2;SDS_P1;SDS_P2;PMS_P1;PMS_P2;Temp;Humidity;BMP_temperature;BMP_pressure;BME280_temperature;BME280_humidity;BME280_pressure;Samples;Min_cycle;Max_cycle;Signal;HPM_P1;HPM_P2
2022/12/26 00:01:53;;;;;;;40.90;20.15;;;8.80;99.90;;;;;;5049108;28;20049;-69
2022/12/26 00:04:23;;;;;;;49.85;21.45;;;8.80;99.90;;;;;;5050749;28;20136;-61
2022/12/26 00:06:51;;;;;;;51.78;22.80;;;8.80;99.90;;;;;;5051650;28;20045;-55
2022/12/26 00:09:18;;;;;;;49.38;22.42;;;8.90;99.90;;;;;;5054327;28;20049;-66
2022/12/26 00:11:45;;;;;;;39.50;20.15;;;8.80;99.90;;;;;;5052757;28;20061;-68
2022/12/26 00:14:13;;;;;;;51.00;22.48;;;8.80;99.90;;;;;;5049564;28;20382;-63
2022/12/26 00:16:40;;;;;;;51.53;22.52;;;8.80;99.90;;;;;;5049743;28;20068;-66
2022/12/26 00:19:07;;;;;;;58.13;22.30;;;8.80;99.90;;;;;;5054035;28;20075;-63
2022/12/26 00:21:34;;;;;;;61.28;21.23;;;8.80;99.90;;;;;;5054653;28;20094;-65
2022/12/26 00:24:02;;;;;;;51.22;21.63;;;8.80;99.90;;;;;;5049874;28;20449;-50
2022/12/26 00:26:29;;;;;;;65.10;22.85;;;8.80;99.90;;;;;;5049305;28;20057;-56
2022/12/26 00:28:56;;;;;;;54.20;20.35;;;8.80;99.90;;;;;;5046895;28;20057;-53
2022/12/26 00:31:24;;;;;;;77.10;23.25;;;8.80;99.90;;;;;;5046950;28;20045;-70
2022/12/26 00:33:51;;;;;;;84.07;23.85;;;8.80;99.90;;;;;;5049183;28;20045;-65
2022/12/26 00:36:19;;;;;;;69.50;22.98;;;8.70;99.90;;;;;;5049267;28;20150;-66
2022/12/26 00:38:46;;;;;;;59.22;22.23;;;8.80;99.90;;;;;;5049968;28;20087;-68
2022/12/26 00:41:15;;;;;;;58.10;21.63;;;8.70;99.90;;;;;;5053964;28;20053;-64
2022/12/26 00:43:42;;;;;;;58.13;20.98;;;8.70;99.90;;;;;;5047204;28;20103;-64
2022/12/26 00:46:09;;;;;;;55.15;20.88;;;8.80;99.90;;;;;;5053582;28;20190;-57
2022/12/26 00:48:35;;;;;;;52.13;19.27;;;8.70;99.90;;;;;;5053191;28;20049;-69
2022/12/26 00:51:04;;;;;;;54.95;20.38;;;8.80;99.90;;;;;;5050127;28;20122;-67
2022/12/26 00:53:30;;;;;;;53.22;20.58;;;8.80;99.90;;;;;;5052452;28;20057;-57
2022/12/26 00:55:57;;;;;;;49.75;19.65;;;8.70;99.90;;;;;;5048875;28;20061;-69
2022/12/26 00:58:25;;;;;;;49.83;19.92;;;8.80;99.90;;;;;;5049002;28;20102;-70
2022/12/26 01:00:53;;;;;;;50.35;19.13;;;8.80;99.90;;;;;;5049681;28;20098;-63
2022/12/26 01:03:20;;;;;;;39.83;18.42;;;8.70;99.90;;;;;;5052635;28;20075;-54
2022/12/26 01:05:47;;;;;;;41.05;17.23;;;8.70;99.90;;;;;;5048965;28;20084;-70
2022/12/26 01:08:14;;;;;;;46.28;17.38;;;8.70;99.90;;;;;;5048460;28;20079;-68
2022/12/26 01:10:41;;;;;;;37.58;15.48;;;8.70;99.90;;;;;;5050452;28;20048;-60
2022/12/26 01:13:08;;;;;;;49.28;17.08;;;8.80;99.90;;;;;;5051341;28;20123;-54
2022/12/26 01:15:36;;;;;;;43.28;16.15;;;8.80;99.90;;;;;;5051651;28;20049;-63
2022/12/26 01:18:03;;;;;;;52.40;17.05;;;8.80;99.90;;;;;;5046087;28;20057;-63
2022/12/26 01:20:30;;;;;;;40.63;15.57;;;8.80;99.90;;;;;;5049440;28;20045;-63
2022/12/26 01:22:57;;;;;;;51.75;17.05;;;8.80;99.90;;;;;;5048327;28;20099;-63
2022/12/26 01:25:24;;;;;;;59.22;18.63;;;8.80;99.90;;;;;;5043687;28;20049;-65
2022/12/26 01:27:51;;;;;;;63.50;19.67;;;8.80;99.90;;;;;;5047408;28;20095;-66
2022/12/26 01:30:18;;;;;;;61.28;19.48;;;8.80;99.90;;;;;;5049366;28;20047;-65
2022/12/26 01:32:46;;;;;;;63.80;19.85;;;8.80;99.90;;;;;;5049055;28;20132;-58
2022/12/26 01:35:13;;;;;;;58.47;20.25;;;8.80;99.90;;;;;;5048298;28;20060;-66
2022/12/26 01:37:40;;;;;;;65.72;21.98;;;8.80;99.90;;;;;;5045294;28;20503;-60
2022/12/26 01:40:07;;;;;;;62.80;21.67;;;8.80;99.90;;;;;;5046508;28;22300;-68
2022/12/26 01:42:37;;;;;;;74.65;23.02;;;8.80;99.90;;;;;;5044476;28;20451;-56
2022/12/26 01:45:05;;;;;;;64.60;21.35;;;8.80;99.90;;;;;;5047407;28;20053;-61
2022/12/26 01:47:41;;;;;;;79.53;23.85;;;8.80;99.90;;;;;;5054289;28;20046;-53
2022/12/26 01:50:17;;;;;;;70.90;22.25;;;8.80;99.90;;;;;;5045457;28;20099;-62
2022/12/26 01:52:45;;;;;;;56.17;20.08;;;8.80;99.90;;;;;;5042598;28;20053;-60
2022/12/26 01:55:13;;;;;;;66.70;21.38;;;8.80;99.90;;;;;;5045025;28;20122;-63
2022/12/26 01:57:42;;;;;;;57.42;20.90;;;8.80;99.90;;;;;;5045965;28;20103;-54
2022/12/26 02:00:10;;;;;;;68.28;22.27;;;8.80;99.90;;;;;;5044493;28;20469;-58
2022/12/26 02:07:59;;;;;;;55.22;21.33;;;8.80;99.90;;;;;;5041045;28;20152;-57
2022/12/26 02:10:26;;;;;;;49.13;19.90;;;8.80;99.90;;;;;;5047017;28;20094;-58
2022/12/26 02:12:53;;;;;;;55.45;21.30;;;8.90;99.90;;;;;;5050413;28;20052;-59
2022/12/26 02:15:21;;;;;;;56.15;20.67;;;8.90;99.90;;;;;;5048641;28;20079;-56
2022/12/26 02:17:48;;;;;;;50.92;21.10;;;8.90;99.90;;;;;;5051815;28;20053;-56
2022/12/26 02:20:20;;;;;;;54.92;22.08;;;8.90;99.90;;;;;;5044378;28;20041;-60
2022/12/26 02:23:30;;;;;;;50.13;21.52;;;8.90;99.90;;;;;;5048940;28;20489;-61
2022/12/26 02:26:22;;;;;;;51.42;22.02;;;8.90;99.90;;;;;;5046318;28;20536;-61
2022/12/26 02:29:03;;;;;;;51.10;21.08;;;8.80;99.90;;;;;;5042300;28;20037;-58
2022/12/26 02:31:32;;;;;;;47.72;22.77;;;8.90;99.90;;;;;;5046140;28;20087;-55
2022/12/26 02:34:02;;;;;;;47.72;21.17;;;8.90;99.90;;;;;;5045569;28;20053;-60
2022/12/26 02:36:47;;;;;;;43.15;21.63;;;8.80;99.90;;;;;;5045121;28;20044;-63
2022/12/26 02:39:20;;;;;;;46.58;22.98;;;8.90;99.90;;;;;;5045471;28;20053;-55
2022/12/26 02:41:50;;;;;;;45.95;23.33;;;8.90;99.90;;;;;;5046278;28;20091;-46
2022/12/26 02:47:10;;;;;;;48.88;24.38;;;8.90;99.90;;;;;;5045038;28;20041;-63
2022/12/26 03:15:26;;;;;;;64.35;29.45;;;9.00;99.90;;;;;;5048674;28;20045;-65
2022/12/26 03:17:53;;;;;;;59.80;28.63;;;9.00;99.90;;;;;;5049901;28;20049;-69
2022/12/26 03:20:21;;;;;;;77.55;29.73;;;9.00;99.90;;;;;;5049181;28;20055;-67
2022/12/26 03:22:49;;;;;;;69.57;30.23;;;9.00;99.90;;;;;;5051005;28;20432;-66
2022/12/26 03:28:02;;;;;;;70.85;31.83;;;9.00;99.90;;;;;;5050849;28;20069;-74
2022/12/26 03:35:55;;;;;;;68.18;31.10;;;9.00;99.90;;;;;;5047323;28;20184;-59
2022/12/26 03:38:23;;;;;;;75.50;32.33;;;9.10;99.90;;;;;;5048739;28;20091;-68
2022/12/26 04:20:14;;;;;;;65.00;32.83;;;9.10;99.90;;;;;;5068591;28;20053;-71
2022/12/26 04:44:53;;;;;;;52.30;28.50;;;9.10;99.90;;;;;;5048662;28;20045;-64
2022/12/26 04:47:21;;;;;;;45.80;27.20;;;9.10;99.90;;;;;;5051252;28;20065;-69
2022/12/26 04:55:13;;;;;;;45.65;26.02;;;9.00;99.90;;;;;;5048294;28;20080;-53
2022/12/26 04:57:41;;;;;;;43.88;26.38;;;9.00;99.90;;;;;;5049637;28;20049;-69
2022/12/26 05:00:09;;;;;;;48.05;27.23;;;8.90;99.90;;;;;;5047880;28;20099;-58
2022/12/26 05:10:49;;;;;;;48.38;27.13;;;8.90;99.90;;;;;;5052158;28;20098;-63
2022/12/26 05:13:17;;;;;;;39.10;26.10;;;8.90;99.90;;;;;;5051572;28;20104;-69
2022/12/26 05:29:37;;;;;;;39.40;26.58;;;8.80;99.90;;;;;;5027442;28;20106;-72
2022/12/26 05:32:04;;;;;;;43.35;25.77;;;8.80;99.90;;;;;;5051950;28;20045;-68
2022/12/26 05:34:30;;;;;;;42.67;25.13;;;8.80;99.90;;;;;;5048634;28;20073;-75
2022/12/26 05:36:58;;;;;;;40.72;24.65;;;8.80;99.90;;;;;;5050101;28;20072;-69
2022/12/26 05:39:25;;;;;;;43.08;27.17;;;8.80;99.90;;;;;;5051009;28;20098;-56
2022/12/26 05:41:51;;;;;;;41.40;25.88;;;8.80;99.90;;;;;;5050940;28;20075;-71
2022/12/26 05:44:18;;;;;;;41.22;24.85;;;8.90;99.90;;;;;;5050591;28;20560;-70
2022/12/26 05:46:47;;;;;;;41.45;25.65;;;8.80;99.90;;;;;;5046627;28;20049;-63
2022/12/26 05:49:14;;;;;;;41.95;25.52;;;8.80;99.90;;;;;;5049882;28;20052;-59
2022/12/26 05:51:41;;;;;;;39.75;25.50;;;8.80;99.90;;;;;;5049771;28;20056;-70
2022/12/26 05:54:07;;;;;;;40.30;24.27;;;8.80;99.90;;;;;;5051420;28;20083;-67
2022/12/26 05:56:34;;;;;;;41.05;25.38;;;8.80;99.90;;;;;;5048951;28;20122;-60
2022/12/26 05:59:01;;;;;;;42.10;25.98;;;8.80;99.90;;;;;;5050884;28;20441;-55
2022/12/26 06:01:28;;;;;;;42.85;26.45;;;8.80;99.90;;;;;;5046572;28;20068;-63
2022/12/26 06:03:59;;;;;;;43.13;25.08;;;8.70;99.90;;;;;;5049249;28;20065;-71
2022/12/26 06:06:27;;;;;;;40.00;25.95;;;8.80;99.90;;;;;;5048551;28;20106;-56
2022/12/26 06:08:54;;;;;;;39.08;24.73;;;8.80;99.90;;;;;;5046673;28;20076;-69
2022/12/26 06:11:21;;;;;;;43.38;25.83;;;8.80;99.90;;;;;;5049219;28;20523;-63
2022/12/26 06:13:48;;;;;;;39.38;25.40;;;8.80;99.90;;;;;;5053354;28;20076;-60
2022/12/26 06:16:16;;;;;;;37.85;24.40;;;8.80;99.90;;;;;;5052918;28;20081;-59
2022/12/26 06:18:43;;;;;;;38.72;26.02;;;8.80;99.90;;;;;;5049951;28;20065;-67
2022/12/26 06:21:11;;;;;;;40.28;24.08;;;8.80;99.90;;;;;;5044263;28;20173;-65
2022/12/26 06:23:39;;;;;;;37.33;23.17;;;8.80;99.90;;;;;;5046903;28;20053;-53
2022/12/26 06:26:06;;;;;;;38.70;24.33;;;8.80;99.90;;;;;;5047898;28;20053;-63
2022/12/26 06:28:33;;;;;;;37.35;23.17;;;8.80;99.90;;;;;;5048664;28;20041;-66
2022/12/26 06:31:03;;;;;;;35.00;23.35;;;8.90;99.90;;;;;;5046131;28;20508;-67
2022/12/26 06:33:30;;;;;;;34.30;22.75;;;8.90;99.90;;;;;;5045997;28;20049;-70
2022/12/26 06:36:03;;;;;;;38.65;22.60;;;8.90;99.90;;;;;;5047337;28;20053;-65
2022/12/26 06:38:31;;;;;;;33.20;21.08;;;8.90;99.90;;;;;;5044726;28;20386;-55
2022/12/26 06:40:58;;;;;;;36.67;21.30;;;8.90;99.90;;;;;;5048630;28;20473;-69
2022/12/26 06:43:24;;;;;;;33.90;20.58;;;8.90;99.90;;;;;;5048164;28;20081;-70
2022/12/26 06:45:55;;;;;;;36.80;21.42;;;8.90;99.90;;;;;;5048427;28;20045;-70
2022/12/26 06:48:22;;;;;;;35.88;22.13;;;8.90;99.90;;;;;;5042684;28;20055;-68
2022/12/26 06:50:49;;;;;;;33.65;20.52;;;8.90;99.90;;;;;;5048100;28;20048;-71
2022/12/26 06:53:15;;;;;;;29.80;20.05;;;8.90;99.90;;;;;;5044345;28;20797;-68
2022/12/26 06:55:44;;;;;;;34.90;19.60;;;8.90;99.90;;;;;;5047891;28;20050;-58
2022/12/26 06:58:10;;;;;;;30.17;19.23;;;8.90;99.90;;;;;;5040531;28;20112;-66
2022/12/26 07:00:37;;;;;;;33.72;21.17;;;8.90;99.90;;;;;;5047102;28;20049;-70
2022/12/26 07:03:04;;;;;;;34.10;19.27;;;8.90;99.90;;;;;;5049712;28;20408;-68
2022/12/26 07:05:31;;;;;;;30.33;18.17;;;8.90;99.90;;;;;;5046671;28;20084;-64
2022/12/26 07:07:58;;;;;;;28.27;18.10;;;8.90;99.90;;;;;;5048909;28;20057;-69
2022/12/26 07:10:24;;;;;;;25.42;17.80;;;8.90;99.90;;;;;;5048154;28;20048;-73
2022/12/26 07:12:53;;;;;;;25.98;17.17;;;8.90;99.90;;;;;;5049388;28;20400;-70
2022/12/26 07:15:19;;;;;;;30.77;17.42;;;8.80;99.90;;;;;;5047910;28;20497;-62
2022/12/26 07:17:46;;;;;;;28.70;17.88;;;8.80;99.90;;;;;;5049504;28;20049;-70
2022/12/26 07:20:13;;;;;;;27.63;17.80;;;8.80;99.90;;;;;;5048391;28;20091;-55
2022/12/26 07:22:40;;;;;;;30.17;18.00;;;8.80;99.90;;;;;;5053157;28;20049;-57
2022/12/26 07:25:08;;;;;;;25.50;18.15;;;8.80;99.90;;;;;;5050863;28;20045;-64
2022/12/26 07:27:34;;;;;;;28.08;17.42;;;8.80;99.90;;;;;;5052434;28;20049;-59
2022/12/26 07:30:03;;;;;;;25.40;17.67;;;8.90;99.90;;;;;;5050037;28;20147;-66
2022/12/26 07:32:30;;;;;;;25.33;17.30;;;8.90;99.90;;;;;;5052163;28;20202;-60
2022/12/26 07:34:56;;;;;;;27.42;17.75;;;8.90;99.90;;;;;;5048412;28;21103;-69
2022/12/26 07:37:23;;;;;;;30.25;19.60;;;8.90;99.90;;;;;;5047470;28;20045;-68
2022/12/26 07:39:50;;;;;;;30.27;18.80;;;8.90;99.90;;;;;;5051234;28;20072;-66
2022/12/26 07:42:17;;;;;;;25.23;18.05;;;8.90;99.90;;;;;;5051309;28;20086;-70
2022/12/26 07:44:44;;;;;;;31.92;19.15;;;8.90;99.90;;;;;;5049891;28;20505;-67
2022/12/26 07:47:12;;;;;;;28.08;18.33;;;8.90;99.90;;;;;;5052001;28;20049;-50
2022/12/26 07:49:39;;;;;;;26.50;18.65;;;8.90;99.90;;;;;;5049305;28;20067;-70
2022/12/26 07:52:05;;;;;;;31.17;19.10;;;8.80;99.90;;;;;;5046570;28;20441;-60
2022/12/26 07:54:33;;;;;;;31.50;18.67;;;8.80;99.90;;;;;;5044149;28;20053;-57
2022/12/26 07:56:59;;;;;;;27.55;19.45;;;8.80;99.90;;;;;;5044904;28;20198;-67
2022/12/26 07:59:26;;;;;;;30.65;19.25;;;8.80;99.90;;;;;;5043985;28;20106;-56
2022/12/26 08:01:55;;;;;;;33.20;19.33;;;8.80;99.90;;;;;;5041887;28;20073;-61
2022/12/26 08:04:23;;;;;;;28.35;18.38;;;8.80;99.90;;;;;;5042957;28;20072;-62
2022/12/26 08:06:50;;;;;;;26.58;17.13;;;8.80;99.90;;;;;;5048336;28;20485;-57
2022/12/26 08:09:17;;;;;;;28.38;17.70;;;8.70;99.90;;;;;;5050818;28;20057;-49
2022/12/26 08:11:44;;;;;;;24.58;16.58;;;8.70;99.90;;;;;;5045166;28;20045;-59
2022/12/26 08:14:11;;;;;;;29.08;16.95;;;8.70;99.90;;;;;;5046932;28;20085;-63
2022/12/26 08:16:38;;;;;;;23.33;15.13;;;8.70;99.90;;;;;;5056545;28;20053;-58
2022/12/26 08:19:05;;;;;;;23.02;15.43;;;8.70;99.90;;;;;;5072559;28;20122;-60
2022/12/26 08:21:33;;;;;;;21.73;14.75;;;8.70;99.90;;;;;;5055045;28;20689;-65
2022/12/26 08:24:00;;;;;;;23.38;14.68;;;8.70;99.90;;;;;;5051141;28;20558;-68
2022/12/26 08:26:27;;;;;;;24.88;14.63;;;8.70;99.90;;;;;;5052266;28;20084;-56
2022/12/26 08:28:55;;;;;;;21.15;12.95;;;8.70;99.90;;;;;;5052361;28;20465;-66
2022/12/26 08:31:22;;;;;;;20.27;12.52;;;8.70;99.90;;;;;;5054936;28;20045;-72
2022/12/26 08:33:49;;;;;;;23.55;13.85;;;8.80;99.90;;;;;;5054310;28;20103;-70
2022/12/26 08:36:17;;;;;;;18.75;12.25;;;8.80;99.90;;;;;;5057606;28;20102;-67
2022/12/26 08:38:46;;;;;;;24.02;12.07;;;8.80;99.90;;;;;;5052295;28;20064;-62
2022/12/26 08:41:12;;;;;;;23.85;12.40;;;8.80;99.90;;;;;;5054844;28;20053;-70
2022/12/26 08:43:39;;;;;;;20.23;11.75;;;8.90;99.90;;;;;;5050358;28;20048;-71
2022/12/26 08:46:07;;;;;;;20.13;11.40;;;8.90;99.90;;;;;;5051373;28;20057;-61
2022/12/26 08:48:34;;;;;;;15.55;9.63;;;8.90;99.90;;;;;;5049543;28;20083;-61
2022/12/26 08:51:02;;;;;;;19.35;9.57;;;8.90;99.90;;;;;;5049160;28;20485;-69
2022/12/26 08:53:29;;;;;;;14.98;8.55;;;9.00;99.90;;;;;;5055965;28;20057;-67
2022/12/26 08:55:57;;;;;;;15.85;8.90;;;9.00;99.90;;;;;;5049984;28;20049;-57
2022/12/26 08:58:24;;;;;;;18.63;8.77;;;9.10;99.90;;;;;;5059718;28;20049;-62
2022/12/26 09:00:51;;;;;;;18.48;8.38;;;9.10;99.90;;;;;;5050969;28;20052;-69
2022/12/26 09:03:18;;;;;;;15.32;6.93;;;9.20;99.90;;;;;;5055485;28;20048;-71
2022/12/26 09:05:45;;;;;;;13.32;7.00;;;9.20;99.90;;;;;;5053107;28;20560;-67
2022/12/26 09:08:11;;;;;;;17.63;7.55;;;9.20;99.90;;;;;;5052194;28;20489;-61
2022/12/26 09:10:38;;;;;;;21.00;7.35;;;9.20;99.90;;;;;;5050108;28;20079;-64
2022/12/26 09:13:06;;;;;;;14.43;7.63;;;9.20;99.90;;;;;;5051203;28;20067;-66
2022/12/26 09:15:33;;;;;;;17.95;7.40;;;9.20;99.90;;;;;;5051840;28;20558;-62
2022/12/26 09:18:00;;;;;;;13.88;7.28;;;9.20;99.90;;;;;;5047201;28;20085;-54
2022/12/26 09:20:27;;;;;;;19.15;8.13;;;9.30;99.90;;;;;;5051137;28;20091;-64
2022/12/26 09:22:54;;;;;;;20.52;8.70;;;9.30;99.90;;;;;;5047203;28;20804;-64
2022/12/26 09:25:22;;;;;;;17.45;7.88;;;9.20;99.90;;;;;;5050394;28;20057;-64
2022/12/26 09:27:49;;;;;;;20.92;8.40;;;9.30;99.90;;;;;;5051675;28;20069;-62
2022/12/26 09:30:17;;;;;;;15.68;7.82;;;9.20;99.90;;;;;;5048509;28;20056;-68
2022/12/26 09:32:44;;;;;;;12.88;7.60;;;9.20;99.90;;;;;;5053718;28;20140;-69
2022/12/26 09:35:10;;;;;;;16.63;8.00;;;9.20;99.90;;;;;;5054711;28;20190;-65
2022/12/26 09:37:37;;;;;;;16.25;7.60;;;9.20;99.90;;;;;;5057484;28;20080;-66
2022/12/26 09:40:05;;;;;;;12.80;6.20;;;9.20;99.90;;;;;;5058888;28;20049;-61
2022/12/26 09:42:36;;;;;;;16.08;5.85;;;9.20;99.90;;;;;;5057576;28;20049;-76
2022/12/26 09:45:07;;;;;;;13.55;5.63;;;9.20;99.90;;;;;;5058119;28;20053;-67
2022/12/26 09:47:37;;;;;;;14.40;6.35;;;9.30;99.90;;;;;;5057513;28;20083;-60
2022/12/26 09:50:10;;;;;;;12.77;5.43;;;9.30;99.90;;;;;;5057070;28;20053;-60
2022/12/26 09:52:41;;;;;;;13.73;6.00;;;9.30;99.90;;;;;;5055682;28;20107;-67
2022/12/26 09:55:25;;;;;;;15.40;5.93;;;9.30;99.90;;;;;;5057967;28;20045;-65
2022/12/26 09:57:53;;;;;;;16.95;5.15;;;9.30;99.90;;;;;;5057304;28;20056;-71
2022/12/26 10:00:21;;;;;;;10.60;4.20;;;9.30;99.90;;;;;;5057011;28;20087;-72
2022/12/26 10:02:54;;;;;;;9.70;3.40;;;9.20;99.90;;;;;;5051545;28;20045;-70
2022/12/26 10:05:21;;;;;;;15.32;2.75;;;9.20;99.90;;;;;;5057536;28;20114;-67
2022/12/26 10:07:50;;;;;;;20.20;2.42;;;9.20;99.90;;;;;;5048667;28;20079;-70
2022/12/26 10:10:18;;;;;;;21.67;3.33;;;9.00;99.90;;;;;;5054961;28;20429;-61
2022/12/26 10:12:52;;;;;;;22.50;3.45;;;8.90;99.90;;;;;;5052105;28;20105;-70
2022/12/26 10:15:29;;;;;;;21.25;3.53;;;8.70;99.90;;;;;;5057173;28;20048;-56
2022/12/26 10:18:02;;;;;;;20.50;4.03;;;8.60;99.90;;;;;;5056799;28;20056;-71
2022/12/26 10:20:32;;;;;;;19.38;3.25;;;8.50;99.90;;;;;;5042095;28;20049;-72
2022/12/26 10:23:20;;;;;;;18.33;2.78;;;8.40;99.90;;;;;;5046459;28;20138;-72
2022/12/26 10:25:48;;;;;;;15.20;2.55;;;8.30;99.90;;;;;;5058269;28;20040;-70
2022/12/26 10:28:22;;;;;;;17.00;3.08;;;8.30;99.90;;;;;;5058925;28;20056;-64
2022/12/26 10:30:48;;;;;;;16.58;3.95;;;8.20;99.90;;;;;;5058521;28;20041;-73
2022/12/26 10:33:18;;;;;;;27.88;8.63;;;8.10;99.90;;;;;;5053552;28;20114;-62
2022/12/26 10:35:45;;;;;;;37.08;13.63;;;8.10;99.90;;;;;;5057078;28;20060;-74
2022/12/26 10:38:15;;;;;;;28.15;10.60;;;8.10;99.90;;;;;;5045601;28;20057;-71
2022/12/26 10:40:43;;;;;;;17.10;4.82;;;8.00;99.90;;;;;;5057806;28;20045;-70
2022/12/26 10:43:28;;;;;;;17.98;3.72;;;8.00;99.90;;;;;;5054243;28;20744;-71
2022/12/26 10:46:19;;;;;;;19.40;2.85;;;8.00;99.90;;;;;;5052685;28;20063;-72
2022/12/26 10:48:47;;;;;;;9.70;2.30;;;7.90;99.90;;;;;;5053526;28;20080;-64
2022/12/26 10:51:16;;;;;;;15.40;2.08;;;7.90;99.90;;;;;;5044034;28;20045;-70
2022/12/26 10:53:49;;;;;;;13.20;1.83;;;8.00;99.90;;;;;;5053870;28;20063;-59
2022/12/26 10:56:15;;;;;;;10.20;1.92;;;7.90;99.90;;;;;;5060377;28;20041;-71
2022/12/26 10:58:42;;;;;;;12.27;1.90;;;8.00;99.90;;;;;;5057842;28;20056;-72
2022/12/26 11:01:32;;;;;;;18.33;2.63;;;7.90;99.90;;;;;;5055856;28;20041;-55
2022/12/26 11:04:01;;;;;;;16.95;2.20;;;7.90;99.90;;;;;;5060112;28;20108;-75
2022/12/26 11:06:31;;;;;;;16.77;2.85;;;7.80;99.90;;;;;;5057270;28;20077;-72
2022/12/26 11:08:57;;;;;;;16.02;1.90;;;7.80;99.90;;;;;;5059858;28;20065;-74
2022/12/26 11:11:25;;;;;;;22.02;2.38;;;7.80;99.90;;;;;;5057580;28;20044;-72
2022/12/26 11:13:53;;;;;;;14.32;2.30;;;7.80;99.90;;;;;;5060438;28;20044;-71
2022/12/26 11:16:24;;;;;;;17.70;2.22;;;7.70;99.90;;;;;;5059832;28;20056;-71
2022/12/26 11:18:51;;;;;;;19.48;1.83;;;7.70;99.90;;;;;;5060874;28;20045;-66
2022/12/26 11:21:24;;;;;;;21.92;2.13;;;7.70;99.90;;;;;;5060015;28;20554;-75
2022/12/26 11:23:51;;;;;;;14.43;2.03;;;7.70;99.90;;;;;;5053255;28;20110;-75
2022/12/26 11:26:21;;;;;;;15.10;1.92;;;7.70;99.90;;;;;;5062775;28;20055;-76
2022/12/26 11:28:47;;;;;;;12.80;2.15;;;7.70;99.90;;;;;;5061609;28;20080;-76
2022/12/26 11:31:22;;;;;;;10.40;1.67;;;7.70;99.90;;;;;;5057266;28;20084;-74
2022/12/26 11:33:49;;;;;;;13.82;1.95;;;7.70;99.90;;;;;;5060708;28;20140;-72
2022/12/26 11:36:19;;;;;;;9.80;1.70;;;7.70;99.90;;;;;;5056141;28;20084;-73
2022/12/26 11:38:50;;;;;;;14.68;1.80;;;7.70;99.90;;;;;;5053537;28;20404;-65
2022/12/26 11:41:35;;;;;;;10.40;1.67;;;7.60;99.90;;;;;;5052312;28;20057;-60
2022/12/26 11:44:13;;;;;;;14.73;2.35;;;7.60;99.90;;;;;;5056776;28;20045;-63
2022/12/26 11:46:43;;;;;;;12.15;1.95;;;7.60;99.90;;;;;;5056646;28;20421;-65
2022/12/26 11:49:20;;;;;;;12.80;1.75;;;7.60;99.90;;;;;;5054315;28;20045;-52
2022/12/26 11:51:48;;;;;;;14.15;2.15;;;7.60;99.90;;;;;;5053245;28;20068;-73
2022/12/26 11:54:25;;;;;;;14.82;2.15;;;7.60;99.90;;;;;;5060283;28;20480;-66
2022/12/26 11:57:18;;;;;;;13.00;2.08;;;7.60;99.90;;;;;;5050982;28;20110;-72
2022/12/26 11:59:45;;;;;;;18.92;2.03;;;7.60;99.90;;;;;;5046724;28;20080;-66
2022/12/26 12:02:29;;;;;;;19.90;2.63;;;7.60;99.90;;;;;;5042208;28;20099;-68
2022/12/26 12:05:01;;;;;;;17.48;2.20;;;7.70;99.90;;;;;;5046205;28;20049;-67
2022/12/26 12:07:41;;;;;;;17.77;2.15;;;7.60;99.90;;;;;;5066397;28;20095;-53
2022/12/26 12:10:46;;;;;;;14.13;2.03;;;7.70;99.90;;;;;;5047824;28;20527;-65
2022/12/26 12:13:28;;;;;;;23.98;3.30;;;7.70;99.90;;;;;;4993500;28;20080;-58
2022/12/26 12:15:59;;;;;;;22.30;3.08;;;7.80;99.90;;;;;;5043456;28;20104;-61
2022/12/26 12:18:34;;;;;;;19.08;3.03;;;7.80;99.90;;;;;;5055511;28;20080;-58
2022/12/26 12:21:07;;;;;;;18.20;3.08;;;7.90;99.90;;;;;;5055809;28;20110;-68
2022/12/26 12:23:52;;;;;;;16.60;2.33;;;7.90;99.90;;;;;;5054958;28;20045;-65
2022/12/26 12:26:23;;;;;;;19.00;2.45;;;7.90;99.90;;;;;;5055567;28;20045;-69
2022/12/26 12:29:02;;;;;;;;;;;7.90;99.90;;;;;;5057227;28;20057;-66
2022/12/26 12:31:32;;;;;;;22.88;2.70;;;7.90;99.90;;;;;;5054513;28;20331;-64
2022/12/26 12:34:07;;;;;;;20.92;3.47;;;7.90;99.90;;;;;;5056209;28;20076;-63
2022/12/26 12:36:37;;;;;;;17.08;2.70;;;7.90;99.90;;;;;;5053743;28;20095;-67
2022/12/26 12:39:09;;;;;;;20.42;3.08;;;7.90;99.90;;;;;;5052609;28;20041;-66
2022/12/26 12:42:06;;;;;;;23.95;3.13;;;7.90;99.90;;;;;;5048919;28;20084;-67
2022/12/26 12:44:43;;;;;;;20.25;2.65;;;7.80;99.90;;;;;;5051833;28;20080;-60
2022/12/26 12:47:14;;;;;;;15.00;2.45;;;7.80;99.90;;;;;;5057536;28;20080;-67
2022/12/26 12:49:48;;;;;;;23.45;2.38;;;7.80;99.90;;;;;;5056480;28;20175;-64
2022/12/26 12:52:21;;;;;;;18.50;2.67;;;7.80;99.90;;;;;;5051771;28;20057;-65
2022/12/26 12:55:16;;;;;;;22.30;3.15;;;7.80;99.90;;;;;;5056419;28;20384;-66
2022/12/26 12:57:47;;;;;;;17.85;2.33;;;7.80;99.90;;;;;;5048153;28;20126;-61
2022/12/26 13:00:16;;;;;;;23.40;3.80;;;7.70;99.90;;;;;;5046342;28;20084;-64
2022/12/26 13:02:45;;;;;;;15.70;2.28;;;7.70;99.90;;;;;;5051998;28;20128;-64
2022/12/26 13:05:18;;;;;;;27.58;2.88;;;7.70;99.90;;;;;;5047841;28;20532;-58
2022/12/26 13:07:47;;;;;;;31.05;3.10;;;7.70;99.90;;;;;;5046073;28;20138;-45
2022/12/26 13:10:16;;;;;;;21.00;3.03;;;7.60;99.90;;;;;;5048819;28;20063;-64
2022/12/26 13:12:44;;;;;;;20.88;2.55;;;7.60;99.90;;;;;;5044522;28;20071;-60
2022/12/26 13:15:19;;;;;;;16.85;2.45;;;7.60;99.90;;;;;;5045092;28;20103;-61
2022/12/26 13:17:50;;;;;;;20.73;3.13;;;7.60;99.90;;;;;;5043790;28;20077;-64
2022/12/26 13:20:20;;;;;;;21.80;2.63;;;7.60;99.90;;;;;;5046252;28;20447;-61
2022/12/26 13:25:37;;;;;;;15.13;2.58;;;7.50;99.90;;;;;;5045013;28;20049;-60
2022/12/26 13:28:09;;;;;;;19.35;2.72;;;7.50;99.90;;;;;;5042578;28;21181;-54
2022/12/26 13:30:36;;;;;;;19.00;2.50;;;7.50;99.90;;;;;;5042683;28;20463;-60
2022/12/26 13:33:03;;;;;;;18.70;2.03;;;7.50;99.90;;;;;;5045022;28;20564;-55
2022/12/26 13:35:52;;;;;;;17.25;2.33;;;7.50;99.90;;;;;;5047557;28;20059;-61
2022/12/26 13:38:19;;;;;;;26.90;2.97;;;7.50;99.90;;;;;;5050886;28;20114;-63
2022/12/26 13:40:46;;;;;;;23.42;2.90;;;7.40;99.90;;;;;;5052976;28;20091;-62
2022/12/26 13:46:03;;;;;;;18.25;3.45;;;7.30;99.90;;;;;;5047133;28;20045;-55
2022/12/26 13:48:58;;;;;;;17.58;3.35;;;7.30;99.90;;;;;;5038628;28;20107;-56
2022/12/26 13:51:51;;;;;;;19.80;3.22;;;7.30;99.90;;;;;;5029069;28;20045;-58
2022/12/26 13:54:19;;;;;;;23.23;5.15;;;7.30;99.90;;;;;;5045412;28;20123;-60
2022/12/26 13:57:13;;;;;;;26.98;3.25;;;7.30;99.90;;;;;;5044406;28;20049;-47
2022/12/26 13:59:45;;;;;;;21.75;3.70;;;7.20;99.90;;;;;;5040332;28;20088;-60
2022/12/26 14:02:22;;;;;;;13.32;3.38;;;7.20;99.90;;;;;;5044499;28;20084;-52
2022/12/26 14:04:53;;;;;;;17.92;3.45;;;7.20;99.90;;;;;;5045753;28;20532;-61
2022/12/26 14:07:23;;;;;;;17.20;3.92;;;7.10;99.90;;;;;;5041673;28;20073;-61
2022/12/26 14:09:58;;;;;;;18.40;3.78;;;7.10;99.90;;;;;;5043705;28;20102;-60
2022/12/26 14:12:46;;;;;;;25.30;3.55;;;7.10;99.90;;;;;;5045000;28;20120;-59
2022/12/26 14:15:50;;;;;;;16.45;3.33;;;7.10;99.90;;;;;;5045395;28;20520;-62
2022/12/26 14:18:28;;;;;;;16.80;2.95;;;7.10;99.90;;;;;;5059216;28;20378;-61
2022/12/26 14:20:59;;;;;;;26.02;3.55;;;7.10;99.90;;;;;;5050174;28;20049;-59
2022/12/26 14:23:44;;;;;;;16.67;3.15;;;7.10;99.90;;;;;;5049389;28;20428;-59
2022/12/26 14:26:18;;;;;;;21.83;3.15;;;7.10;99.90;;;;;;5046905;28;20148;-60
2022/12/26 14:28:52;;;;;;;25.45;5.07;;;7.10;99.90;;;;;;5035507;28;20049;-59
2022/12/26 14:31:24;;;;;;;15.23;3.72;;;7.00;99.90;;;;;;5044383;28;20106;-61
2022/12/26 14:33:53;;;;;;;21.27;2.92;;;7.00;99.90;;;;;;5050116;28;20091;-56
2022/12/26 14:36:25;;;;;;;22.90;4.53;;;7.00;99.90;;;;;;5051476;28;20057;-60
2022/12/26 14:38:56;;;;;;;;;;;7.00;99.90;;;;;;5051147;28;20052;-60
2022/12/26 14:44:17;;;;;;;19.83;4.47;;;6.90;99.90;;;;;;5023669;28;20078;-60
2022/12/26 14:46:58;;;;;;;16.60;3.28;;;6.80;99.90;;;;;;5049045;28;20110;-59
2022/12/26 14:49:35;;;;;;;28.90;4.13;;;6.80;99.90;;;;;;5046326;28;20045;-52
2022/12/26 14:52:31;;;;;;;22.50;4.13;;;6.80;99.90;;;;;;5044261;28;20049;-51
2022/12/26 14:54:58;;;;;;;20.67;4.03;;;6.80;99.90;;;;;;5044063;28;20064;-58
2022/12/26 14:57:43;;;;;;;24.90;4.75;;;6.70;99.90;;;;;;5040987;28;20164;-52
2022/12/26 15:00:32;;;;;;;15.65;2.65;;;6.70;99.90;;;;;;5044076;28;20051;-55
2022/12/26 15:03:42;;;;;;;22.77;6.88;;;6.60;99.90;;;;;;5038876;28;21227;-53
2022/12/26 15:07:01;;;;;;;18.70;4.90;;;6.50;99.90;;;;;;5044048;28;21187;-52
2022/12/26 15:10:04;;;;;;;16.45;5.15;;;6.50;99.90;;;;;;5050355;28;20089;-57
2022/12/26 15:13:11;;;;;;;21.42;3.42;;;6.40;99.90;;;;;;5033700;28;20472;-60
2022/12/26 15:15:41;;;;;;;15.82;2.45;;;6.40;99.90;;;;;;5048158;28;20045;-60
2022/12/26 15:18:24;;;;;;;15.77;2.75;;;6.40;99.90;;;;;;5046796;28;20151;-52
2022/12/26 15:21:05;;;;;;;16.35;3.25;;;6.30;99.90;;;;;;5048161;28;20497;-60
2022/12/26 15:23:56;;;;;;;21.98;3.10;;;6.30;99.90;;;;;;5052475;28;20057;-60